createdAt,value
2018-12-07T00:01:09.783Z,71.90
2018-12-07T00:03:39.531Z,72.00
2018-12-07T00:06:09.291Z,71.90
2018-12-07T00:08:38.900Z,71.90
2018-12-07T00:11:08.613Z,71.90
2018-12-07T00:13:38.372Z,71.80
2018-12-07T00:16:08.015Z,71.80
2018-12-07T00:18:37.725Z,71.70
2018-12-07T00:21:07.313Z,71.80
2018-12-07T00:23:36.940Z,71.80
2018-12-07T00:26:06.622Z,71.60
2018-12-07T00:28:36.221Z,71.40
2018-12-07T00:31:05.836Z,71.40
2018-12-07T00:33:35.441Z,71.50
2018-12-07T00:36:05.033Z,71.50
2018-12-07T00:38:34.619Z,71.60
2018-12-07T00:41:04.283Z,71.70
2018-12-07T00:43:33.920Z,71.70
2018-12-07T00:46:03.574Z,71.70
2018-12-07T00:48:33.176Z,71.60
2018-12-07T00:51:02.761Z,71.60
2018-12-07T00:53:32.346Z,71.70
2018-12-07T00:56:01.955Z,71.80
2018-12-07T00:58:31.520Z,71.90
2018-12-07T01:01:01.095Z,71.90
2018-12-07T01:03:30.823Z,72.10
2018-12-07T01:06:00.533Z,72.00
2018-12-07T01:08:30.162Z,72.00
2018-12-07T01:10:59.781Z,72.00
2018-12-07T01:13:29.469Z,72.10
2018-12-07T01:15:59.162Z,72.10
2018-12-07T01:18:28.850Z,72.20
2018-12-07T01:20:58.518Z,72.20
2018-12-07T01:23:28.251Z,72.00
2018-12-07T01:25:57.974Z,72.80
2018-12-07T01:28:27.629Z,72.10
2018-12-07T01:30:57.214Z,72.30
2018-12-07T01:33:26.901Z,72.10
2018-12-07T01:35:56.605Z,72.10
2018-12-07T01:38:26.281Z,72.00
2018-12-07T01:40:56.036Z,72.00
2018-12-07T01:43:25.729Z,72.20
2018-12-07T01:45:55.389Z,72.50
2018-12-07T01:48:26.025Z,72.50
2018-12-07T01:50:55.673Z,72.50
2018-12-07T01:53:25.333Z,72.60
2018-12-07T01:55:56.001Z,72.60
2018-12-07T01:58:25.630Z,72.80
2018-12-07T02:00:55.294Z,72.90
2018-12-07T02:03:24.872Z,72.80
2018-12-07T02:05:54.482Z,73.60
2018-12-07T02:08:24.030Z,72.90
2018-12-07T02:10:53.673Z,72.90
2018-12-07T02:13:23.243Z,73.10
2018-12-07T02:15:52.860Z,72.80
2018-12-07T02:18:22.444Z,72.90
2018-12-07T02:20:52.074Z,72.70
2018-12-07T02:23:21.709Z,72.70
2018-12-07T02:25:51.274Z,72.70
2018-12-07T02:28:20.889Z,72.70
2018-12-07T02:30:50.461Z,72.80
2018-12-07T02:33:20.063Z,72.80
2018-12-07T02:35:49.621Z,72.60
2018-12-07T02:38:19.277Z,72.50
2018-12-07T02:40:48.921Z,72.40
2018-12-07T02:43:18.554Z,72.50
2018-12-07T02:45:48.234Z,72.30
2018-12-07T02:48:17.915Z,72.30
2018-12-07T02:50:47.557Z,72.40
2018-12-07T02:53:18.240Z,72.40
2018-12-07T02:55:47.827Z,72.40
2018-12-07T02:58:17.573Z,72.30
2018-12-07T03:00:47.200Z,72.40
2018-12-07T03:03:16.790Z,72.50
2018-12-07T03:05:46.407Z,73.20
2018-12-07T03:08:16.000Z,72.50
2018-12-07T03:10:45.614Z,72.40
2018-12-07T03:13:15.190Z,72.40
2018-12-07T03:15:44.782Z,72.50
2018-12-07T03:18:29.513Z,72.50
2018-12-07T03:20:59.580Z,72.50
2018-12-07T03:23:29.262Z,72.60
2018-12-07T03:26:04.288Z,72.60
2018-12-07T03:28:33.881Z,72.50
2018-12-07T03:31:04.082Z,72.50
2018-12-07T03:33:33.739Z,72.50
2018-12-07T03:36:03.399Z,72.40
2018-12-07T03:38:33.007Z,72.50
2018-12-07T03:41:02.691Z,72.50
2018-12-07T03:43:32.252Z,72.50
2018-12-07T03:46:01.813Z,72.50
2018-12-07T03:48:31.429Z,72.10
2018-12-07T03:51:01.013Z,72.50
2018-12-07T03:53:30.702Z,72.60
2018-12-07T03:56:00.262Z,72.70
2018-12-07T03:58:29.910Z,72.60
2018-12-07T04:01:00.644Z,72.80
2018-12-07T04:03:32.306Z,72.90
2018-12-07T04:06:02.050Z,73.70
2018-12-07T04:08:31.684Z,73.00
2018-12-07T04:11:01.233Z,73.10
2018-12-07T04:13:30.854Z,73.10
2018-12-07T04:16:00.419Z,73.10
2018-12-07T04:18:30.072Z,73.20
2018-12-07T04:20:59.648Z,73.20
2018-12-07T04:23:29.283Z,73.20
2018-12-07T04:25:58.911Z,73.30
2018-12-07T04:28:30.536Z,73.40
2018-12-07T04:31:00.151Z,73.40
2018-12-07T04:33:29.728Z,73.40
2018-12-07T04:36:07.128Z,73.40
2018-12-07T04:38:31.020Z,73.50
2018-12-07T04:41:00.682Z,74.30
2018-12-07T04:43:30.248Z,73.50
2018-12-07T04:46:01.894Z,73.50
2018-12-07T04:48:31.529Z,73.40
2018-12-07T04:51:01.147Z,73.40
2018-12-07T04:53:30.862Z,73.30
2018-12-07T04:56:00.514Z,73.30
2018-12-07T04:58:30.092Z,73.60
2018-12-07T05:00:59.715Z,73.60
2018-12-07T05:03:29.322Z,73.70
2018-12-07T05:05:58.921Z,73.80
2018-12-07T05:08:28.568Z,73.70
2018-12-07T05:10:58.260Z,73.70
2018-12-07T05:13:27.948Z,73.70
2018-12-07T05:15:57.574Z,73.80
2018-12-07T05:18:27.191Z,73.80
2018-12-07T05:20:56.909Z,73.90
2018-12-07T05:23:26.634Z,74.10
2018-12-07T05:25:56.287Z,74.10
2018-12-07T05:28:26.027Z,74.20
2018-12-07T05:30:55.702Z,74.20
2018-12-07T05:33:25.443Z,74.30
2018-12-07T05:35:55.187Z,73.90
2018-12-07T05:38:24.962Z,74.30
2018-12-07T05:40:54.696Z,74.50
2018-12-07T05:43:24.446Z,74.60
2018-12-07T05:45:54.089Z,74.60
2018-12-07T05:48:23.891Z,74.60
2018-12-07T05:50:54.585Z,74.60
2018-12-07T05:53:25.337Z,74.60
2018-12-07T05:55:56.713Z,74.60
2018-12-07T05:58:41.062Z,74.60
2018-12-07T06:01:14.465Z,74.60
2018-12-07T06:03:44.185Z,74.60
2018-12-07T06:06:13.918Z,74.80
2018-12-07T06:08:43.488Z,74.80
2018-12-07T06:11:13.169Z,74.60
2018-12-07T06:13:42.679Z,74.60
2018-12-07T06:16:12.436Z,74.70
2018-12-07T06:18:42.160Z,74.70
2018-12-07T06:21:11.844Z,74.70
2018-12-07T06:23:41.503Z,74.60
2018-12-07T06:26:11.255Z,74.60
2018-12-07T06:28:40.998Z,74.60
2018-12-07T06:31:10.658Z,74.70
2018-12-07T06:33:40.375Z,74.70
2018-12-07T06:36:10.258Z,74.80
2018-12-07T06:38:40.102Z,74.70
2018-12-07T06:41:09.932Z,75.00
2018-12-07T06:43:39.842Z,74.90
2018-12-07T06:46:09.561Z,74.80
2018-12-07T06:48:39.315Z,74.80
2018-12-07T06:51:09.096Z,74.80
2018-12-07T06:53:47.795Z,74.90
2018-12-07T06:56:22.126Z,74.80
2018-12-07T06:59:31.757Z,75.40
2018-12-07T07:02:01.747Z,74.80
2018-12-07T07:11:45.953Z,75.40
2018-12-07T07:14:48.663Z,75.50
2018-12-07T07:17:35.084Z,75.60
2018-12-07T07:20:25.958Z,75.70
2018-12-07T07:25:58.695Z,75.90
2018-12-07T07:28:30.102Z,76.00
2018-12-07T07:30:59.975Z,76.10
2018-12-07T07:33:29.714Z,76.00
2018-12-07T07:35:59.462Z,75.90
2018-12-07T07:38:29.218Z,76.10
2018-12-07T07:40:58.995Z,76.00
2018-12-07T07:43:28.778Z,76.00
2018-12-07T07:45:58.665Z,76.10
2018-12-07T07:48:28.468Z,76.20
2018-12-07T07:50:58.261Z,76.10
2018-12-07T07:53:28.010Z,76.20
2018-12-07T07:55:57.780Z,76.30
2018-12-07T07:58:27.548Z,76.30
2018-12-07T08:00:57.155Z,76.10
2018-12-07T08:03:26.759Z,76.20
2018-12-07T08:05:56.370Z,76.30
2018-12-07T08:08:26.115Z,76.40
2018-12-07T08:10:55.750Z,76.50
2018-12-07T08:13:25.479Z,76.40
2018-12-07T08:15:55.178Z,76.20
2018-12-07T08:18:24.877Z,76.20
2018-12-07T08:20:54.494Z,75.90
2018-12-07T08:23:24.156Z,75.70
2018-12-07T08:25:54.252Z,75.80
2018-12-07T08:28:23.964Z,75.70
2018-12-07T08:30:53.711Z,75.70
2018-12-07T08:33:41.374Z,75.50
2018-12-07T08:36:13.279Z,75.40
2018-12-07T08:38:43.595Z,75.50
2018-12-07T08:41:13.776Z,75.30
2018-12-07T08:43:43.987Z,75.10
2018-12-07T08:46:13.851Z,75.00
2018-12-07T08:48:44.041Z,74.50
2018-12-07T08:51:14.101Z,74.30
2018-12-07T08:53:44.082Z,74.20
2018-12-07T08:56:14.109Z,73.50
2018-12-07T08:58:44.238Z,73.40
2018-12-07T09:01:14.200Z,73.40
2018-12-07T09:03:44.226Z,73.50
2018-12-07T09:06:15.383Z,73.50
2018-12-07T09:08:45.387Z,73.60
2018-12-07T09:11:15.271Z,73.80
2018-12-07T09:13:46.585Z,74.00
2018-12-07T09:16:16.698Z,73.60
2018-12-07T09:18:46.914Z,73.70
2018-12-07T09:21:16.869Z,73.40
2018-12-07T09:23:49.690Z,73.20
2018-12-07T09:26:18.865Z,73.10
2018-12-07T09:28:50.027Z,73.00
2018-12-07T09:31:20.023Z,72.90
2018-12-07T09:33:50.158Z,72.70
2018-12-07T09:36:20.271Z,72.30
2018-12-07T09:38:50.349Z,72.50
2018-12-07T09:41:20.419Z,72.40
2018-12-07T09:43:50.586Z,71.60
2018-12-07T09:46:20.558Z,71.80
2018-12-07T09:48:50.686Z,71.90
2018-12-07T09:51:20.718Z,72.20
2018-12-07T09:53:50.911Z,72.20
2018-12-07T09:56:21.025Z,72.40
2018-12-07T09:58:51.192Z,72.60
2018-12-07T10:01:21.241Z,72.70
2018-12-07T10:03:51.426Z,72.90
2018-12-07T10:06:21.596Z,73.10
2018-12-07T10:08:51.828Z,73.30
2018-12-07T10:11:22.976Z,73.40
2018-12-07T10:13:52.994Z,73.60
2018-12-07T10:16:23.049Z,73.50
2018-12-07T10:18:53.150Z,73.60
2018-12-07T10:21:23.154Z,73.50
2018-12-07T10:23:54.310Z,73.40
2018-12-07T10:26:24.369Z,73.40
2018-12-07T10:28:54.368Z,73.30
2018-12-07T10:31:24.297Z,73.30
2018-12-07T10:33:54.220Z,73.20
2018-12-07T10:36:24.269Z,73.40
2018-12-07T10:38:57.307Z,73.40
2018-12-07T10:41:27.554Z,73.50
2018-12-07T10:43:57.495Z,73.70
2018-12-07T10:46:27.479Z,73.70
2018-12-07T10:48:57.522Z,73.80
2018-12-07T10:51:27.715Z,73.80
2018-12-07T10:53:57.677Z,74.40
2018-12-07T10:56:27.606Z,73.70
2018-12-07T10:58:57.515Z,73.60
2018-12-07T11:01:32.686Z,73.50
2018-12-07T11:04:07.781Z,73.20
2018-12-07T11:06:42.805Z,73.20
2018-12-07T11:09:17.738Z,73.20
2018-12-07T11:11:51.935Z,73.00
2018-12-07T11:14:27.464Z,73.00
2018-12-07T11:17:02.776Z,72.70
2018-12-07T11:19:38.077Z,72.90
2018-12-07T11:22:13.257Z,72.80
2018-12-07T11:24:48.576Z,72.80
2018-12-07T11:27:23.643Z,72.80
2018-12-07T11:29:58.695Z,72.80
2018-12-07T11:32:32.867Z,73.00
2018-12-07T11:35:07.961Z,73.10
2018-12-07T11:37:38.098Z,73.00
2018-12-07T11:40:08.946Z,73.10
2018-12-07T11:42:41.236Z,73.10
2018-12-07T11:45:11.217Z,73.20
2018-12-07T11:47:41.464Z,73.10
2018-12-07T11:50:11.779Z,72.90
2018-12-07T11:52:41.915Z,72.70
2018-12-07T11:55:11.940Z,72.60
2018-12-07T11:57:42.027Z,72.40
2018-12-07T12:00:12.384Z,72.10
2018-12-07T12:02:42.476Z,71.90
2018-12-07T12:05:12.582Z,71.80
2018-12-07T12:07:42.851Z,71.10
2018-12-07T12:10:12.793Z,70.90
2018-12-07T12:12:47.881Z,70.60
2018-12-07T12:15:18.049Z,70.50
2018-12-07T12:17:48.151Z,70.40
2018-12-07T12:20:18.394Z,70.30
2018-12-07T12:22:48.930Z,69.80
2018-12-07T12:25:18.927Z,69.90
2018-12-07T12:27:49.037Z,69.90
2018-12-07T12:30:19.064Z,69.70
2018-12-07T12:32:49.361Z,69.50
2018-12-07T12:35:19.410Z,69.20
2018-12-07T12:37:49.658Z,69.10
2018-12-07T12:40:19.633Z,69.00
2018-12-07T12:42:49.675Z,68.60
2018-12-07T12:45:19.605Z,68.80
2018-12-07T12:47:49.758Z,68.80
2018-12-07T12:50:24.851Z,68.70
2018-12-07T12:52:56.136Z,69.00
2018-12-07T12:55:26.063Z,69.30
2018-12-07T12:57:56.036Z,69.60
2018-12-07T13:00:27.577Z,69.80
2018-12-07T13:02:57.833Z,70.00
2018-12-07T13:05:28.060Z,70.00
2018-12-07T13:07:58.225Z,70.00
2018-12-07T13:10:28.653Z,70.00
2018-12-07T13:12:58.836Z,69.80
2018-12-07T13:15:28.971Z,69.60
2018-12-07T13:17:59.882Z,69.90
2018-12-07T13:20:29.768Z,70.10
2018-12-07T13:22:59.819Z,70.00
2018-12-07T13:25:29.751Z,69.60
2018-12-07T13:28:06.352Z,69.50
2018-12-07T13:30:36.334Z,69.50
2018-12-07T13:33:06.806Z,69.70
2018-12-07T13:35:36.852Z,69.90
2018-12-07T13:38:06.896Z,69.90
2018-12-07T13:40:37.384Z,70.20
2018-12-07T13:43:07.661Z,70.20
2018-12-07T13:45:38.583Z,70.70
2018-12-07T13:48:08.942Z,70.70
2018-12-07T13:50:42.037Z,71.00
2018-12-07T13:53:13.803Z,71.20
2018-12-07T13:55:43.949Z,71.30
2018-12-07T13:58:16.144Z,71.30
2018-12-07T14:00:46.354Z,71.40
2018-12-07T14:03:16.967Z,71.40
2018-12-07T14:05:49.723Z,71.50
2018-12-07T14:08:19.926Z,71.20
2018-12-07T14:10:50.332Z,71.50
2018-12-07T14:13:20.611Z,71.60
2018-12-07T14:15:50.788Z,71.60
2018-12-07T14:18:21.092Z,71.60
2018-12-07T14:20:51.389Z,71.70
2018-12-07T14:23:21.653Z,71.80
2018-12-07T14:25:51.966Z,71.90
2018-12-07T14:28:21.964Z,72.00
2018-12-07T14:30:53.214Z,72.40
2018-12-07T14:33:23.503Z,72.10
2018-12-07T14:35:53.724Z,72.20
2018-12-07T14:38:23.719Z,72.30
2018-12-07T14:40:53.823Z,72.30
2018-12-07T14:43:23.724Z,73.20
2018-12-07T14:45:53.614Z,72.50
2018-12-07T14:48:23.503Z,72.60
2018-12-07T14:50:53.268Z,72.70
2018-12-07T14:53:23.143Z,72.70
2018-12-07T14:55:53.049Z,72.80
2018-12-07T14:58:22.910Z,73.20
2018-12-07T15:00:52.835Z,72.60
2018-12-07T15:03:23.124Z,72.50
2018-12-07T15:05:53.013Z,72.50
2018-12-07T15:08:23.065Z,72.50
2018-12-07T15:10:52.971Z,72.30
2018-12-07T15:13:23.193Z,72.40
2018-12-07T15:15:53.097Z,72.50
2018-12-07T15:18:22.929Z,72.60
2018-12-07T15:20:53.176Z,72.70
2018-12-07T15:23:22.997Z,72.60
2018-12-07T15:25:53.577Z,72.50
2018-12-07T15:28:23.505Z,72.50
2018-12-07T15:30:59.884Z,72.50
2018-12-07T15:33:30.058Z,72.30
2018-12-07T15:35:59.973Z,72.20
2018-12-07T15:38:29.972Z,72.10
2018-12-07T15:41:00.953Z,72.00
2018-12-07T15:43:31.089Z,71.80
2018-12-07T15:46:01.208Z,71.40
2018-12-07T15:48:31.062Z,71.20
2018-12-07T15:51:00.988Z,71.10
2018-12-07T15:53:31.313Z,70.70
2018-12-07T15:56:01.731Z,70.70
2018-12-07T15:58:31.958Z,70.60
2018-12-07T16:01:02.254Z,71.40
2018-12-07T16:03:32.391Z,70.60
2018-12-07T16:06:03.284Z,70.50
2018-12-07T16:08:33.766Z,70.50
2018-12-07T16:11:03.928Z,70.40
2018-12-07T16:13:34.294Z,70.30
2018-12-07T16:16:04.869Z,70.20
2018-12-07T16:18:35.241Z,70.40
2018-12-07T16:21:05.667Z,70.50
2018-12-07T16:23:37.010Z,70.40
2018-12-07T16:26:07.561Z,70.30
2018-12-07T16:28:37.797Z,70.40
2018-12-07T16:31:08.135Z,70.30
2018-12-07T16:33:40.797Z,70.30
2018-12-07T16:36:10.863Z,70.30
2018-12-07T16:38:40.777Z,70.40
2018-12-07T16:41:10.977Z,70.60
2018-12-07T16:43:41.297Z,70.70
2018-12-07T16:46:11.114Z,71.00
2018-12-07T16:48:41.060Z,71.10
2018-12-07T16:51:11.219Z,71.20
2018-12-07T16:53:41.289Z,71.20
2018-12-07T16:56:11.657Z,71.30
2018-12-07T16:58:41.884Z,71.50
2018-12-07T17:01:12.093Z,71.60
2018-12-07T17:03:41.958Z,71.60
2018-12-07T17:06:11.865Z,71.60
2018-12-07T17:08:41.985Z,71.60
2018-12-07T17:11:11.853Z,71.70
2018-12-07T17:13:41.584Z,71.70
2018-12-07T17:16:11.888Z,71.80
2018-12-07T17:18:41.791Z,71.90
2018-12-07T17:21:12.073Z,71.90
2018-12-07T17:23:42.298Z,72.20
2018-12-07T17:26:12.403Z,72.40
2018-12-07T17:28:42.239Z,72.50
2018-12-07T17:31:12.351Z,72.70
2018-12-07T17:33:42.189Z,72.80
2018-12-07T17:36:12.366Z,72.70
2018-12-07T17:38:42.222Z,72.70
2018-12-07T17:41:12.357Z,72.70
2018-12-07T17:43:42.365Z,72.80
2018-12-07T17:46:12.390Z,72.70
2018-12-07T17:48:42.167Z,72.70
2018-12-07T17:51:12.176Z,72.90
2018-12-07T17:53:42.178Z,73.10
2018-12-07T17:56:12.414Z,73.20
2018-12-07T17:58:42.239Z,73.40
2018-12-07T18:01:12.267Z,73.50
2018-12-07T18:03:42.178Z,73.60
2018-12-07T18:06:12.020Z,73.90
2018-12-07T18:08:42.178Z,74.20
2018-12-07T18:11:12.105Z,74.30
2018-12-07T18:13:41.936Z,74.50
2018-12-07T18:16:13.016Z,74.50
2018-12-07T18:18:42.804Z,74.50
2018-12-07T18:21:12.841Z,73.90
2018-12-07T18:23:42.915Z,74.30
2018-12-07T18:26:12.835Z,74.30
2018-12-07T18:28:42.787Z,74.30
2018-12-07T18:31:12.710Z,74.40
2018-12-07T18:33:42.738Z,74.50
2018-12-07T18:36:12.964Z,74.70
2018-12-07T18:38:43.032Z,74.60
2018-12-07T18:41:13.028Z,74.70
2018-12-07T18:43:42.941Z,74.60
2018-12-07T18:46:13.379Z,74.50
2018-12-07T18:48:43.557Z,74.40
2018-12-07T18:51:13.477Z,74.40
2018-12-07T18:53:43.493Z,74.60
2018-12-07T18:56:13.481Z,74.70
2018-12-07T18:58:44.450Z,74.80
2018-12-07T19:01:14.572Z,74.80
2018-12-07T19:03:44.791Z,74.90
2018-12-07T19:06:15.064Z,74.90
2018-12-07T19:08:46.002Z,74.90
2018-12-07T19:11:16.149Z,74.70
2018-12-07T19:13:46.174Z,74.80
2018-12-07T19:16:16.391Z,74.60
2018-12-07T19:18:46.509Z,74.80
2018-12-07T19:21:17.640Z,74.60
2018-12-07T19:23:47.592Z,74.50
2018-12-07T19:26:17.647Z,74.30
2018-12-07T19:28:47.692Z,74.20
2018-12-07T19:31:17.865Z,74.30
2018-12-07T19:33:47.816Z,74.20
2018-12-07T19:36:18.273Z,74.20
2018-12-07T19:38:48.434Z,74.30
2018-12-07T19:41:18.498Z,74.20
2018-12-07T19:43:48.465Z,74.10
2018-12-07T19:46:18.588Z,74.10
2018-12-07T19:48:48.769Z,74.10
2018-12-07T19:51:18.785Z,74.00
2018-12-07T19:53:49.045Z,74.00
2018-12-07T19:56:19.231Z,74.10
2018-12-07T19:58:49.074Z,74.00
2018-12-07T20:01:19.218Z,73.90
2018-12-07T20:03:49.448Z,73.90
2018-12-07T20:06:19.576Z,73.80
2018-12-07T20:08:49.351Z,73.80
2018-12-07T20:11:19.828Z,73.90
2018-12-07T20:13:49.987Z,73.70
2018-12-07T20:16:20.079Z,73.60
2018-12-07T20:18:49.856Z,73.50
2018-12-07T20:21:19.894Z,73.60
2018-12-07T20:23:49.604Z,73.40
2018-12-07T20:26:19.629Z,73.50
2018-12-07T20:28:50.646Z,73.60
2018-12-07T20:31:20.600Z,73.70
2018-12-07T20:33:50.730Z,73.70
2018-12-07T20:36:20.934Z,73.90
2018-12-07T20:38:51.056Z,74.50
2018-12-07T20:41:20.858Z,73.90
2018-12-07T20:43:50.618Z,73.30
2018-12-07T20:46:20.581Z,73.70
2018-12-07T20:48:50.464Z,73.80
2018-12-07T20:51:20.457Z,73.70
2018-12-07T20:53:50.204Z,73.70
2018-12-07T20:56:20.244Z,73.70
2018-12-07T20:58:50.370Z,73.60
2018-12-07T21:01:20.439Z,73.70
2018-12-07T21:04:10.780Z,73.60
2018-12-07T21:12:10.351Z,73.70
2018-12-07T21:14:43.642Z,73.80
2018-12-07T21:17:26.703Z,74.20
2018-12-07T21:20:08.664Z,74.50
2018-12-07T21:22:38.543Z,74.60
2018-12-07T21:25:08.755Z,74.40
2018-12-07T21:27:38.691Z,74.40
2018-12-07T21:30:35.466Z,74.20
2018-12-07T21:33:05.250Z,74.10
2018-12-07T21:35:59.773Z,74.00
2018-12-07T21:38:29.762Z,74.00
2018-12-07T21:40:59.856Z,74.00
2018-12-07T21:43:30.007Z,74.20
2018-12-07T21:46:04.594Z,74.40
2018-12-07T21:48:36.373Z,74.50
2018-12-07T21:53:15.547Z,74.50
2018-12-07T21:55:45.345Z,74.60
2018-12-07T21:58:15.096Z,74.80
2018-12-07T22:00:44.753Z,75.10
2018-12-07T22:03:14.600Z,74.90
2018-12-07T22:05:44.475Z,74.80
2018-12-07T22:08:14.373Z,74.80
2018-12-07T22:10:44.524Z,74.80
2018-12-07T22:13:14.604Z,74.60
2018-12-07T22:15:44.787Z,74.60
2018-12-07T22:18:15.086Z,74.50
2018-12-07T22:20:45.002Z,75.00
2018-12-07T22:23:21.652Z,74.60
2018-12-07T22:25:51.600Z,74.60
2018-12-07T22:28:21.430Z,74.40
2018-12-07T22:30:51.074Z,74.40
2018-12-07T22:33:20.650Z,74.50
2018-12-07T22:35:50.622Z,74.60
2018-12-07T22:38:21.901Z,74.60
2018-12-07T22:40:51.720Z,74.40
2018-12-07T22:43:21.465Z,74.50
2018-12-07T22:45:51.689Z,74.40
2018-12-07T22:48:21.835Z,74.50
2018-12-07T22:50:51.660Z,74.50
2018-12-07T22:53:21.298Z,74.50
2018-12-07T22:55:50.987Z,74.40
2018-12-07T22:58:20.737Z,74.70
2018-12-07T23:00:50.925Z,74.70
2018-12-07T23:03:22.393Z,74.60
2018-12-07T23:05:52.181Z,74.70
2018-12-07T23:08:21.983Z,74.70
2018-12-07T23:10:51.722Z,74.90
2018-12-07T23:13:25.657Z,74.80
2018-12-07T23:15:53.146Z,74.80
2018-12-07T23:18:22.851Z,74.80
2018-12-07T23:20:52.540Z,74.90
2018-12-07T23:23:22.262Z,74.80
2018-12-07T23:25:52.039Z,74.80
2018-12-07T23:28:21.735Z,74.90
2018-12-07T23:30:51.549Z,74.80
2018-12-07T23:33:21.453Z,74.80
2018-12-07T23:35:51.238Z,74.60
2018-12-07T23:38:20.934Z,74.50
2018-12-07T23:40:50.684Z,74.60
2018-12-07T23:43:20.378Z,74.50
2018-12-07T23:45:50.122Z,74.50
2018-12-07T23:48:19.740Z,74.50
2018-12-07T23:50:49.442Z,74.40
2018-12-07T23:53:20.036Z,74.30
2018-12-07T23:55:49.667Z,74.30
2018-12-07T23:58:19.468Z,74.30
